createdAt,value
2017-11-18T00:00:44.446Z,65.30
2017-11-18T00:03:18.262Z,65.40
2017-11-18T00:05:52.754Z,65.70
2017-11-18T00:08:27.289Z,65.70
2017-11-18T00:11:01.010Z,65.70
2017-11-18T00:13:34.763Z,65.70
2017-11-18T00:16:09.267Z,65.80
2017-11-18T00:18:57.578Z,66.10
2017-11-18T00:21:32.074Z,66.10
2017-11-18T00:24:11.455Z,66.10
2017-11-18T00:26:45.245Z,66.00
2017-11-18T00:29:19.679Z,66.10
2017-11-18T00:31:53.317Z,66.20
2017-11-18T00:34:27.067Z,66.50
2017-11-18T00:37:00.726Z,66.70
2017-11-18T00:39:35.807Z,67.20
2017-11-18T00:42:09.626Z,67.20
2017-11-18T00:44:43.420Z,67.10
2017-11-18T00:47:17.140Z,67.20
2017-11-18T00:49:50.846Z,66.90
2017-11-18T00:52:26.128Z,66.50
2017-11-18T00:54:59.826Z,66.40
2017-11-18T00:57:33.614Z,66.40
2017-11-18T01:00:07.332Z,66.40
2017-11-18T01:02:41.041Z,66.00
2017-11-18T01:05:14.872Z,66.00
2017-11-18T01:07:49.550Z,65.80
2017-11-18T01:10:23.146Z,66.20
2017-11-18T01:12:57.082Z,66.10
2017-11-18T01:15:30.888Z,66.50
2017-11-18T01:18:04.669Z,66.80
2017-11-18T01:20:39.229Z,67.40
2017-11-18T01:23:13.061Z,67.40
2017-11-18T01:25:47.354Z,67.70
2017-11-18T01:28:21.175Z,67.80
2017-11-18T01:30:54.937Z,68.10
2017-11-18T01:33:28.688Z,68.40
2017-11-18T01:36:02.476Z,68.70
2017-11-18T01:38:36.211Z,68.70
2017-11-18T01:41:09.811Z,69.10
2017-11-18T01:43:45.502Z,69.40
2017-11-18T01:46:20.270Z,69.70
2017-11-18T01:48:54.958Z,69.80
2017-11-18T01:51:28.679Z,70.30
2017-11-18T01:54:02.461Z,70.70
2017-11-18T01:56:36.230Z,71.10
2017-11-18T01:59:09.991Z,71.70
2017-11-18T02:01:45.386Z,71.70
2017-11-18T02:04:20.960Z,71.70
2017-11-18T02:06:55.396Z,71.70
2017-11-18T02:09:29.041Z,71.60
2017-11-18T02:12:02.856Z,71.60
2017-11-18T02:14:36.620Z,71.60
2017-11-18T02:17:10.456Z,72.00
2017-11-18T02:19:44.124Z,72.20
2017-11-18T02:22:18.730Z,72.70
2017-11-18T02:24:53.075Z,72.70
2017-11-18T02:27:26.827Z,72.80
2017-11-18T02:30:00.873Z,73.10
2017-11-18T02:32:35.287Z,73.50
2017-11-18T02:35:09.045Z,73.40
2017-11-18T02:37:43.537Z,73.90
2017-11-18T02:40:18.092Z,73.80
2017-11-18T02:42:51.653Z,74.00
2017-11-18T02:45:25.376Z,74.00
2017-11-18T02:47:59.163Z,74.40
2017-11-18T02:50:32.980Z,74.30
2017-11-18T02:53:06.566Z,74.40
2017-11-18T02:55:40.903Z,75.30
2017-11-18T02:58:14.670Z,75.30
2017-11-18T03:00:48.390Z,75.30
2017-11-18T03:03:22.115Z,75.20
2017-11-18T03:05:55.881Z,74.70
2017-11-18T03:08:29.680Z,74.50
2017-11-18T03:11:03.404Z,74.10
2017-11-18T03:13:37.952Z,73.30
2017-11-18T03:16:11.641Z,73.20
2017-11-18T03:18:46.188Z,72.80
2017-11-18T03:21:19.853Z,72.70
2017-11-18T03:23:53.621Z,72.50
2017-11-18T03:26:27.459Z,72.00
2017-11-18T03:29:01.100Z,71.50
2017-11-18T03:31:34.948Z,71.60
2017-11-18T03:34:10.517Z,70.90
2017-11-18T03:36:45.963Z,70.20
2017-11-18T03:39:19.570Z,69.90
2017-11-18T03:41:53.263Z,69.50
2017-11-18T03:44:26.969Z,68.90
2017-11-18T03:47:00.756Z,68.60
2017-11-18T03:49:34.511Z,68.50
2017-11-18T03:55:09.951Z,66.90
2017-11-18T03:57:43.678Z,66.90
2017-11-18T04:00:18.175Z,65.90
2017-11-18T04:02:52.759Z,65.50
2017-11-18T04:05:27.146Z,65.50
2017-11-18T04:08:01.525Z,64.80
2017-11-18T04:10:35.286Z,64.70
2017-11-18T04:13:09.090Z,64.10
2017-11-18T04:15:42.756Z,63.60
2017-11-18T04:18:16.342Z,63.70
2017-11-18T04:20:50.083Z,63.70
2017-11-18T04:23:23.665Z,63.70
2017-11-18T04:25:57.390Z,62.50
2017-11-18T04:28:31.184Z,62.50
2017-11-18T04:31:04.892Z,62.30
2017-11-18T04:33:38.596Z,62.00
2017-11-18T04:36:12.367Z,61.80
2017-11-18T04:38:46.115Z,61.30
2017-11-18T04:41:19.847Z,61.00
2017-11-18T04:43:53.627Z,61.00
2017-11-18T04:46:27.569Z,60.70
2017-11-18T04:49:01.338Z,60.20
2017-11-18T04:51:37.038Z,60.00
2017-11-18T04:54:10.594Z,59.90
2017-11-18T04:56:45.125Z,60.20
2017-11-18T04:59:18.849Z,60.10
2017-11-18T05:01:53.336Z,60.60
2017-11-18T05:04:28.039Z,60.50
2017-11-18T05:07:01.896Z,60.70
2017-11-18T05:09:35.757Z,60.70
2017-11-18T05:12:09.521Z,61.20
2017-11-18T05:14:43.395Z,61.40
2017-11-18T05:17:17.129Z,61.00
2017-11-18T05:19:50.871Z,61.00
2017-11-18T05:22:25.433Z,60.90
2017-11-18T05:24:59.985Z,60.90
2017-11-18T05:27:33.728Z,60.70
2017-11-18T05:30:07.750Z,60.80
2017-11-18T05:32:42.334Z,60.40
2017-11-18T05:35:16.064Z,60.40
2017-11-18T05:37:49.788Z,60.50
2017-11-18T05:40:23.507Z,60.30
2017-11-18T05:42:57.258Z,60.50
2017-11-18T05:45:30.988Z,60.30
2017-11-18T05:48:04.816Z,60.40
2017-11-18T05:50:39.505Z,61.00
2017-11-18T05:53:13.394Z,60.90
2017-11-18T05:55:48.108Z,60.90
2017-11-18T05:58:21.973Z,61.00
2017-11-18T06:00:56.337Z,60.50
2017-11-18T06:03:31.833Z,60.60
2017-11-18T06:06:05.563Z,60.50
2017-11-18T06:08:39.356Z,60.30
2017-11-18T06:11:13.542Z,60.40
2017-11-18T06:13:48.858Z,60.20
2017-11-18T06:16:22.547Z,60.70
2017-11-18T06:18:56.275Z,60.80
2017-11-18T06:21:30.043Z,60.80
2017-11-18T06:24:03.786Z,60.70
2017-11-18T06:26:38.277Z,60.50
2017-11-18T06:29:12.028Z,60.60
2017-11-18T06:31:45.877Z,60.70
2017-11-18T06:34:19.458Z,60.90
2017-11-18T06:36:53.189Z,61.00
2017-11-18T06:39:26.882Z,60.90
2017-11-18T06:42:01.391Z,61.00
2017-11-18T06:44:35.157Z,60.90
2017-11-18T06:47:09.704Z,60.70
2017-11-18T06:49:43.478Z,60.70
2017-11-18T06:52:18.254Z,60.50
2017-11-18T06:54:51.958Z,60.50
2017-11-18T06:57:25.665Z,60.20
2017-11-18T06:59:59.429Z,60.30
2017-11-18T07:02:33.127Z,59.60
2017-11-18T07:05:06.857Z,59.60
2017-11-18T07:07:41.474Z,58.70
2017-11-18T07:10:15.149Z,58.50
2017-11-18T07:12:48.915Z,57.60
2017-11-18T07:15:23.583Z,57.00
2017-11-18T07:17:57.350Z,56.50
2017-11-18T07:20:31.088Z,56.20
2017-11-18T07:23:04.891Z,56.20
2017-11-18T07:25:39.416Z,56.20
2017-11-18T07:28:13.776Z,56.20
2017-11-18T07:30:48.385Z,56.20
2017-11-18T07:33:22.028Z,56.30
2017-11-18T07:35:57.536Z,56.30
2017-11-18T07:38:31.267Z,56.30
2017-11-18T07:41:05.385Z,56.00
2017-11-18T07:43:39.947Z,56.30
2017-11-18T07:46:13.824Z,56.30
2017-11-18T07:48:49.041Z,56.30
2017-11-18T07:51:25.818Z,56.30
2017-11-18T07:53:59.617Z,56.30
2017-11-18T07:56:33.543Z,56.30
2017-11-18T07:59:08.756Z,56.30
2017-11-18T08:01:43.498Z,56.30
2017-11-18T08:04:17.271Z,56.10
2017-11-18T08:06:50.964Z,56.30
2017-11-18T08:09:24.697Z,56.30
2017-11-18T08:11:58.452Z,55.90
2017-11-18T08:14:32.237Z,55.90
2017-11-18T08:17:06.032Z,56.30
2017-11-18T08:19:39.868Z,55.90
2017-11-18T08:22:13.467Z,56.30
2017-11-18T08:24:47.489Z,56.30
2017-11-18T08:27:21.941Z,56.30
2017-11-18T08:29:55.753Z,56.30
2017-11-18T08:32:30.340Z,56.30
2017-11-18T08:35:04.556Z,56.30
2017-11-18T08:37:38.286Z,56.30
2017-11-18T08:40:12.185Z,56.30
2017-11-18T08:42:47.236Z,56.30
2017-11-18T08:45:20.912Z,56.30
2017-11-18T08:47:54.646Z,56.30
2017-11-18T08:50:28.411Z,56.30
2017-11-18T08:53:02.209Z,56.30
2017-11-18T08:55:35.927Z,56.40
2017-11-18T08:58:09.676Z,56.30
2017-11-18T09:00:44.181Z,56.40
2017-11-18T09:03:19.624Z,56.40
2017-11-18T09:05:53.361Z,56.40
2017-11-18T09:08:27.106Z,56.40
2017-11-18T09:11:01.025Z,56.00
2017-11-18T09:13:34.722Z,56.40
2017-11-18T09:16:08.410Z,56.00
2017-11-18T09:18:42.149Z,56.40
2017-11-18T09:21:16.664Z,56.00
2017-11-18T09:23:50.406Z,56.00
2017-11-18T09:26:24.230Z,55.80
2017-11-18T09:28:57.975Z,55.50
2017-11-18T09:31:31.707Z,55.70
2017-11-18T09:34:05.446Z,55.60
2017-11-18T09:36:39.150Z,55.70
2017-11-18T09:39:13.699Z,55.60
2017-11-18T09:41:47.443Z,55.80
2017-11-18T09:44:21.247Z,55.40
2017-11-18T09:46:54.995Z,55.60
2017-11-18T09:49:30.789Z,55.80
2017-11-18T09:52:04.470Z,55.70
2017-11-18T09:54:38.262Z,55.80
2017-11-18T09:57:11.993Z,55.80
2017-11-18T09:59:47.343Z,55.90
2017-11-18T10:02:21.087Z,55.90
2017-11-18T10:04:54.818Z,56.00
2017-11-18T10:07:28.625Z,55.60
2017-11-18T10:10:06.606Z,55.80
2017-11-18T10:12:40.374Z,55.80
2017-11-18T10:15:14.199Z,55.50
2017-11-18T10:17:47.957Z,55.70
2017-11-18T10:20:22.096Z,56.00
2017-11-18T10:22:55.761Z,55.70
2017-11-18T10:25:35.744Z,55.70
2017-11-18T10:28:09.569Z,56.00
2017-11-18T10:30:43.325Z,56.00
2017-11-18T10:33:16.872Z,55.70
2017-11-18T10:35:50.637Z,55.90
2017-11-18T10:38:24.335Z,55.30
2017-11-18T10:40:59.139Z,55.90
2017-11-18T10:43:32.895Z,55.90
2017-11-18T10:46:06.642Z,55.90
2017-11-18T10:48:41.344Z,55.90
2017-11-18T10:51:15.927Z,55.50
2017-11-18T10:53:49.578Z,55.20
2017-11-18T10:56:24.298Z,55.10
2017-11-18T10:58:58.810Z,54.70
2017-11-18T11:01:32.921Z,55.10
2017-11-18T11:04:06.622Z,55.00
2017-11-18T11:06:40.345Z,54.60
2017-11-18T11:09:14.058Z,54.50
2017-11-18T11:11:47.842Z,54.30
2017-11-18T11:14:22.375Z,54.30
2017-11-18T11:16:56.916Z,54.20
2017-11-18T11:19:30.490Z,54.10
2017-11-18T11:22:04.185Z,54.20
2017-11-18T11:24:37.961Z,53.50
2017-11-18T11:27:11.887Z,53.30
2017-11-18T11:29:46.421Z,53.00
2017-11-18T11:32:20.219Z,52.90
2017-11-18T11:34:53.919Z,52.80
2017-11-18T11:37:27.755Z,52.80
2017-11-18T11:40:02.157Z,52.30
2017-11-18T11:42:37.299Z,52.50
2017-11-18T11:45:11.668Z,52.50
2017-11-18T11:47:45.331Z,52.60
2017-11-18T11:50:19.741Z,52.60
2017-11-18T11:52:53.438Z,52.70
2017-11-18T11:55:28.013Z,53.30
2017-11-18T11:58:01.735Z,53.30
2017-11-18T12:00:38.044Z,52.70
2017-11-18T12:03:11.805Z,52.60
2017-11-18T12:05:45.560Z,53.20
2017-11-18T12:08:19.335Z,53.10
2017-11-18T12:10:53.885Z,53.00
2017-11-18T12:13:28.672Z,53.00
2017-11-18T12:16:02.494Z,53.00
2017-11-18T12:18:36.128Z,53.10
2017-11-18T12:21:10.611Z,53.40
2017-11-18T12:23:44.318Z,53.20
2017-11-18T12:26:18.015Z,53.40
2017-11-18T12:28:51.772Z,53.40
2017-11-18T12:31:25.478Z,53.70
2017-11-18T12:33:59.997Z,53.90
2017-11-18T12:36:33.582Z,54.20
2017-11-18T12:39:07.662Z,54.50
2017-11-18T12:41:41.413Z,54.80
2017-11-18T12:44:17.786Z,54.50
2017-11-18T12:46:54.538Z,54.50
2017-11-18T12:49:28.303Z,54.60
2017-11-18T12:52:01.949Z,54.60
2017-11-18T12:54:35.706Z,54.60
2017-11-18T12:57:09.431Z,54.80
2017-11-18T12:59:43.180Z,54.80
2017-11-18T13:02:16.876Z,54.60
2017-11-18T13:04:50.651Z,54.60
2017-11-18T13:07:24.322Z,55.20
2017-11-18T13:09:58.889Z,55.70
2017-11-18T13:12:32.649Z,57.20
2017-11-18T13:15:07.583Z,58.90
2017-11-18T13:17:42.006Z,60.50
2017-11-18T13:20:15.836Z,61.20
2017-11-18T13:22:49.581Z,61.90
2017-11-18T13:25:27.555Z,62.50
2017-11-18T13:28:01.663Z,62.90
2017-11-18T13:30:36.153Z,62.50
2017-11-18T13:33:10.113Z,64.00
2017-11-18T13:35:44.058Z,62.90
2017-11-18T13:38:17.838Z,63.20
2017-11-18T13:40:51.628Z,64.40
2017-11-18T13:43:25.422Z,65.10
2017-11-18T13:45:59.145Z,65.20
2017-11-18T13:51:36.818Z,68.70
2017-11-18T13:54:10.562Z,69.50
2017-11-18T13:56:44.284Z,72.50
2017-11-18T13:59:18.102Z,74.50
2017-11-18T14:01:52.458Z,78.20
2017-11-18T14:04:27.561Z,78.20
2017-11-18T14:07:01.130Z,81.50
2017-11-18T14:09:34.900Z,78.90
2017-11-18T14:12:09.221Z,81.30
2017-11-18T14:14:44.094Z,82.30
2017-11-18T14:17:17.800Z,84.00
2017-11-18T14:19:51.536Z,83.30
2017-11-18T14:22:26.222Z,85.20
2017-11-18T14:25:02.424Z,84.20
2017-11-18T14:27:36.213Z,85.00
2017-11-18T14:30:11.531Z,88.70
2017-11-18T14:32:46.044Z,86.60
2017-11-18T14:35:19.938Z,86.50
2017-11-18T14:37:55.103Z,86.80
2017-11-18T14:40:29.737Z,87.10
2017-11-18T14:43:04.310Z,87.70
2017-11-18T14:45:38.021Z,87.60
2017-11-18T14:48:11.771Z,87.50
2017-11-18T14:50:45.576Z,88.50
2017-11-18T14:53:20.370Z,87.60
2017-11-18T14:55:54.026Z,87.60
2017-11-18T14:58:28.566Z,88.50
2017-11-18T15:01:02.918Z,88.50
2017-11-18T15:03:36.642Z,88.50
2017-11-18T15:06:10.358Z,88.60
2017-11-18T15:08:44.685Z,88.70
2017-11-18T15:11:18.695Z,88.70
2017-11-18T15:13:52.308Z,87.90
2017-11-18T15:16:29.961Z,88.00
2017-11-18T15:19:19.363Z,88.00
2017-11-18T15:21:54.136Z,87.30
2017-11-18T15:24:33.562Z,86.50
2017-11-18T15:27:12.965Z,86.90
2017-11-18T15:29:54.462Z,87.10
2017-11-18T15:32:33.695Z,86.70
2017-11-18T15:35:10.110Z,86.50
2017-11-18T15:37:59.101Z,85.90
2017-11-18T15:40:33.727Z,86.20
2017-11-18T15:43:08.896Z,86.20
2017-11-18T15:45:44.172Z,85.90
2017-11-18T15:48:33.658Z,85.90
2017-11-18T15:51:10.228Z,86.00
2017-11-18T15:53:50.003Z,85.70
2017-11-18T15:56:39.633Z,86.00
2017-11-18T15:59:14.757Z,85.90
2017-11-18T16:01:52.996Z,86.50
2017-11-18T16:04:28.603Z,86.60
2017-11-18T16:07:09.885Z,86.70
2017-11-18T16:09:44.247Z,86.40
2017-11-18T16:12:17.984Z,86.40
2017-11-18T16:14:52.355Z,87.10
2017-11-18T16:17:27.046Z,86.60
2017-11-18T16:20:01.818Z,86.50
2017-11-18T16:22:35.622Z,86.70
2017-11-18T16:25:09.411Z,86.40
2017-11-18T16:27:43.904Z,85.50
2017-11-18T16:30:17.751Z,85.50
2017-11-18T16:32:52.077Z,84.60
2017-11-18T16:35:25.767Z,84.60
2017-11-18T16:37:59.467Z,83.70
2017-11-18T16:40:34.161Z,83.10
2017-11-18T16:43:07.798Z,83.20
2017-11-18T16:45:41.425Z,82.40
2017-11-18T16:48:15.185Z,82.30
2017-11-18T16:50:49.975Z,82.60
2017-11-18T16:53:23.554Z,81.70
2017-11-18T16:55:57.363Z,81.50
2017-11-18T16:58:31.883Z,82.50
2017-11-18T17:01:05.649Z,82.30
2017-11-18T17:03:39.412Z,82.30
2017-11-18T17:06:13.107Z,81.90
2017-11-18T17:08:46.873Z,82.00
2017-11-18T17:11:20.618Z,82.50
2017-11-18T17:13:54.418Z,83.00
2017-11-18T17:16:28.122Z,83.10
2017-11-18T17:19:01.886Z,82.90
2017-11-18T17:21:36.107Z,83.20
2017-11-18T17:24:10.020Z,83.00
2017-11-18T17:26:43.623Z,83.00
2017-11-18T17:29:17.361Z,82.80
2017-11-18T17:31:55.742Z,82.20
2017-11-18T17:34:29.573Z,82.10
2017-11-18T17:37:07.810Z,81.60
2017-11-18T17:39:43.344Z,80.90
2017-11-18T17:42:19.923Z,80.90
2017-11-18T17:45:08.262Z,80.60
2017-11-18T17:47:43.064Z,80.10
2017-11-18T17:50:17.954Z,80.10
2017-11-18T17:52:51.738Z,80.10
2017-11-18T17:55:26.207Z,80.10
2017-11-18T17:58:00.485Z,80.10
2017-11-18T18:00:34.222Z,80.10
2017-11-18T18:03:08.379Z,80.10
2017-11-18T18:05:42.688Z,80.10
2017-11-18T18:08:16.654Z,80.10
2017-11-18T18:10:50.382Z,80.10
2017-11-18T18:13:24.404Z,80.10
2017-11-18T18:15:58.183Z,80.10
2017-11-18T18:18:31.918Z,80.60
2017-11-18T18:21:05.585Z,80.60
2017-11-18T18:23:40.134Z,81.40
2017-11-18T18:26:14.644Z,81.40
2017-11-18T18:28:49.297Z,81.40
2017-11-18T18:31:23.236Z,81.70
2017-11-18T18:33:57.048Z,81.30
2017-11-18T18:36:30.806Z,81.20
2017-11-18T18:39:04.505Z,81.40
2017-11-18T18:41:38.198Z,81.90
2017-11-18T18:44:11.832Z,81.70
2017-11-18T18:46:45.593Z,81.80
2017-11-18T18:49:19.341Z,81.70
2017-11-18T18:51:53.173Z,81.60
2017-11-18T18:54:26.952Z,81.90
2017-11-18T18:57:01.443Z,81.40
2017-11-18T18:59:35.060Z,81.40
2017-11-18T19:02:08.817Z,81.40
2017-11-18T19:04:42.517Z,81.30
2017-11-18T19:07:16.335Z,81.20
2017-11-18T19:09:50.104Z,81.40
2017-11-18T19:12:23.800Z,81.70
2017-11-18T19:14:57.490Z,81.80
2017-11-18T19:17:31.190Z,81.90
2017-11-18T19:20:04.880Z,82.10
2017-11-18T19:22:38.813Z,82.30
2017-11-18T19:25:13.335Z,82.50
2017-11-18T19:27:46.872Z,82.30
2017-11-18T19:30:20.589Z,81.70
2017-11-18T19:32:54.664Z,81.40
2017-11-18T19:35:28.251Z,80.80
2017-11-18T19:38:01.940Z,80.90
2017-11-18T19:40:35.522Z,80.30
2017-11-18T19:43:09.225Z,80.30
2017-11-18T19:45:42.899Z,80.30
2017-11-18T19:48:16.600Z,80.30
2017-11-18T19:50:50.201Z,79.90
2017-11-18T19:53:23.937Z,80.20
2017-11-18T19:55:57.739Z,79.40
2017-11-18T19:58:31.414Z,79.80
2017-11-18T20:01:05.192Z,79.30
2017-11-18T20:03:38.768Z,79.30
2017-11-18T20:06:12.511Z,79.60
2017-11-18T20:08:46.437Z,79.50
2017-11-18T20:11:20.002Z,79.40
2017-11-18T20:13:54.528Z,78.90
2017-11-18T20:16:28.236Z,78.90
2017-11-18T20:19:02.727Z,79.20
2017-11-18T20:21:36.363Z,79.20
2017-11-18T20:24:10.192Z,78.60
2017-11-18T20:26:43.815Z,78.40
2017-11-18T20:29:18.643Z,79.60
2017-11-18T20:31:52.347Z,78.60
2017-11-18T20:34:26.071Z,78.00
2017-11-18T20:37:00.666Z,76.80
2017-11-18T20:39:35.203Z,76.60
2017-11-18T20:42:09.564Z,76.70
2017-11-18T20:44:43.122Z,76.70
2017-11-18T20:47:16.922Z,76.10
2017-11-18T20:49:50.471Z,75.70
2017-11-18T20:52:24.203Z,75.30
2017-11-18T20:54:57.998Z,74.70
2017-11-18T20:57:31.651Z,75.00
2017-11-18T21:00:05.248Z,75.20
2017-11-18T21:02:39.028Z,74.30
2017-11-18T21:05:12.733Z,74.20
2017-11-18T21:07:46.492Z,74.20
2017-11-18T21:10:20.984Z,73.50
2017-11-18T21:12:55.417Z,73.40
2017-11-18T21:15:29.804Z,73.80
2017-11-18T21:18:03.378Z,73.70
2017-11-18T21:20:37.074Z,73.60
2017-11-18T21:23:10.843Z,73.90
2017-11-18T21:25:44.591Z,74.00
2017-11-18T21:28:18.321Z,74.00
2017-11-18T21:30:52.078Z,74.30
2017-11-18T21:33:25.848Z,73.30
2017-11-18T21:35:59.610Z,73.40
2017-11-18T21:38:33.513Z,73.80
2017-11-18T21:41:07.349Z,73.60
2017-11-18T21:43:41.110Z,73.10
2017-11-18T21:46:14.782Z,73.00
2017-11-18T21:48:48.366Z,72.40
2017-11-18T21:51:22.061Z,72.40
2017-11-18T21:53:56.394Z,72.00
2017-11-18T21:56:30.161Z,72.10
2017-11-18T21:59:03.890Z,72.00
2017-11-18T22:01:38.927Z,72.40
2017-11-18T22:04:12.556Z,71.90
2017-11-18T22:06:46.167Z,71.10
2017-11-18T22:09:20.551Z,71.40
2017-11-18T22:11:54.289Z,71.70
2017-11-18T22:14:27.953Z,71.50
2017-11-18T22:17:01.658Z,71.30
2017-11-18T22:19:35.316Z,70.60
2017-11-18T22:22:09.935Z,71.40
2017-11-18T22:24:43.621Z,70.60
2017-11-18T22:27:17.327Z,69.90
2017-11-18T22:29:51.066Z,70.10
2017-11-18T22:32:24.810Z,70.60
2017-11-18T22:34:58.524Z,70.30
2017-11-18T22:37:32.196Z,70.40
2017-11-18T22:40:05.927Z,69.70
2017-11-18T22:42:40.927Z,70.10
2017-11-18T22:45:14.597Z,70.10
2017-11-18T22:47:49.058Z,69.60
2017-11-18T22:50:22.731Z,69.60
2017-11-18T22:52:56.480Z,70.50
2017-11-18T22:55:30.817Z,70.50
2017-11-18T22:58:04.529Z,70.40
2017-11-18T23:00:41.188Z,70.40
2017-11-18T23:03:15.512Z,71.90
2017-11-18T23:05:50.034Z,72.00
2017-11-18T23:08:24.532Z,72.50
2017-11-18T23:10:58.166Z,72.50
2017-11-18T23:13:32.020Z,73.10
2017-11-18T23:16:05.778Z,73.80
2017-11-18T23:18:39.372Z,73.50
2017-11-18T23:21:13.084Z,73.60
2017-11-18T23:23:46.774Z,74.40
2017-11-18T23:26:20.501Z,74.70
2017-11-18T23:28:54.254Z,74.60
2017-11-18T23:31:28.001Z,74.80
2017-11-18T23:34:02.519Z,75.60
2017-11-18T23:36:36.127Z,75.60
2017-11-18T23:39:09.756Z,76.50
2017-11-18T23:41:43.493Z,76.60
2017-11-18T23:44:17.143Z,77.40
2017-11-18T23:46:50.802Z,77.40
2017-11-18T23:49:24.524Z,77.60
2017-11-18T23:51:58.281Z,77.50
2017-11-18T23:54:32.036Z,77.80
2017-11-18T23:57:05.628Z,78.10
2017-11-18T23:59:39.401Z,77.70
